sensor_id;sensor_type;location;lat;lon;timestamp;pressure;altitude;pressure_sealevel;temperature;humidity
692;BME280;70475;50.084;8.576;2023-11-22T00:02:22;101404.75;;;4.35;100.00
692;BME280;70475;50.084;8.576;2023-11-22T00:04:53;101404.88;;;4.34;100.00
692;BME280;70475;50.084;8.576;2023-11-22T00:07:20;101403.44;;;4.29;100.00
692;BME280;70475;50.084;8.576;2023-11-22T00:09:48;101408.00;;;4.28;100.00
692;BME280;70475;50.084;8.576;2023-11-22T00:12:16;101406.06;;;4.29;100.00
692;BME280;70475;50.084;8.576;2023-11-22T00:14:45;101411.47;;;4.28;100.00
692;BME280;70475;50.084;8.576;2023-11-22T00:17:13;101409.31;;;4.22;100.00
692;BME280;70475;50.084;8.576;2023-11-22T00:19:41;101410.06;;;4.13;100.00
692;BME280;70475;50.084;8.576;2023-11-22T00:22:08;101424.09;;;4.13;100.00
692;BME280;70475;50.084;8.576;2023-11-22T00:24:40;101421.25;;;4.05;100.00
692;BME280;70475;50.084;8.576;2023-11-22T00:27:07;101423.28;;;4.02;100.00
692;BME280;70475;50.084;8.576;2023-11-22T00:29:37;101429.91;;;3.96;100.00
692;BME280;70475;50.084;8.576;2023-11-22T00:32:06;101438.72;;;3.95;100.00
692;BME280;70475;50.084;8.576;2023-11-22T00:34:34;101441.84;;;3.89;100.00
692;BME280;70475;50.084;8.576;2023-11-22T00:37:01;101446.66;;;3.84;100.00
692;BME280;70475;50.084;8.576;2023-11-22T00:39:29;101448.94;;;3.89;100.00
692;BME280;70475;50.084;8.576;2023-11-22T00:41:56;101455.28;;;3.86;100.00
692;BME280;70475;50.084;8.576;2023-11-22T00:44:24;101451.69;;;3.76;100.00
692;BME280;70475;50.084;8.576;2023-11-22T00:46:52;101458.53;;;3.79;100.00
692;BME280;70475;50.084;8.576;2023-11-22T00:49:21;101451.00;;;3.74;100.00
692;BME280;70475;50.084;8.576;2023-11-22T00:51:48;101454.44;;;3.75;100.00
692;BME280;70475;50.084;8.576;2023-11-22T00:54:17;101455.88;;;3.68;100.00
692;BME280;70475;50.084;8.576;2023-11-22T00:56:45;101451.22;;;3.71;100.00
692;BME280;70475;50.084;8.576;2023-11-22T00:59:13;101451.22;;;3.71;100.00
692;BME280;70475;50.084;8.576;2023-11-22T01:01:41;101453.38;;;3.66;100.00
692;BME280;70475;50.084;8.576;2023-11-22T01:04:08;101453.38;;;3.66;100.00
692;BME280;70475;50.084;8.576;2023-11-22T01:06:37;101456.25;;;3.63;100.00
692;BME280;70475;50.084;8.576;2023-11-22T01:09:07;101456.03;;;3.55;100.00
692;BME280;70475;50.084;8.576;2023-11-22T01:11:35;101458.16;;;3.50;100.00
692;BME280;70475;50.084;8.576;2023-11-22T01:14:02;101460.56;;;3.53;100.00
692;BME280;70475;50.084;8.576;2023-11-22T01:16:30;101452.66;;;3.53;100.00
692;BME280;70475;50.084;8.576;2023-11-22T01:18:58;101452.03;;;3.50;100.00
692;BME280;70475;50.084;8.576;2023-11-22T01:21:27;101456.50;;;3.49;100.00
692;BME280;70475;50.084;8.576;2023-11-22T01:23:56;101460.56;;;3.53;100.00
692;BME280;70475;50.084;8.576;2023-11-22T01:26:24;101464.75;;;3.45;100.00
692;BME280;70475;50.084;8.576;2023-11-22T01:28:52;101472.41;;;3.48;100.00
692;BME280;70475;50.084;8.576;2023-11-22T01:31:19;101477.06;;;3.44;100.00
692;BME280;70475;50.084;8.576;2023-11-22T01:33:49;101473.13;;;3.50;100.00
692;BME280;70475;50.084;8.576;2023-11-22T01:36:16;101470.59;;;3.48;100.00
692;BME280;70475;50.084;8.576;2023-11-22T01:38:44;101479.22;;;3.50;100.00
692;BME280;70475;50.084;8.576;2023-11-22T01:41:14;101482.22;;;3.46;100.00
692;BME280;70475;50.084;8.576;2023-11-22T01:43:41;101479.81;;;3.43;100.00
692;BME280;70475;50.084;8.576;2023-11-22T01:46:10;101487.59;;;3.44;100.00
692;BME280;70475;50.084;8.576;2023-11-22T01:48:41;101490.34;;;3.43;100.00
692;BME280;70475;50.084;8.576;2023-11-22T01:51:09;101496.69;;;3.40;100.00
692;BME280;70475;50.084;8.576;2023-11-22T01:53:37;101506.53;;;3.49;100.00
692;BME280;70475;50.084;8.576;2023-11-22T01:56:05;101510.78;;;3.39;100.00
692;BME280;70475;50.084;8.576;2023-11-22T01:58:34;101507.00;;;3.43;100.00
692;BME280;70475;50.084;8.576;2023-11-22T02:01:01;101508.88;;;3.41;100.00
692;BME280;70475;50.084;8.576;2023-11-22T02:03:31;101513.91;;;3.33;100.00
692;BME280;70475;50.084;8.576;2023-11-22T02:05:59;101512.56;;;3.28;100.00
692;BME280;70475;50.084;8.576;2023-11-22T02:08:26;101520.34;;;3.29;100.00
692;BME280;70475;50.084;8.576;2023-11-22T02:10:58;101520.13;;;3.32;100.00
692;BME280;70475;50.084;8.576;2023-11-22T02:13:28;101525.75;;;3.39;100.00
692;BME280;70475;50.084;8.576;2023-11-22T02:15:57;101522.78;;;3.43;100.00
692;BME280;70475;50.084;8.576;2023-11-22T02:18:26;101524.06;;;3.38;100.00
692;BME280;70475;50.084;8.576;2023-11-22T02:20:54;101531.97;;;3.38;100.00
692;BME280;70475;50.084;8.576;2023-11-22T02:23:22;101528.97;;;3.42;100.00
692;BME280;70475;50.084;8.576;2023-11-22T02:25:50;101534.97;;;3.33;100.00
692;BME280;70475;50.084;8.576;2023-11-22T02:28:18;101547.63;;;3.28;100.00
692;BME280;70475;50.084;8.576;2023-11-22T02:30:45;101547.84;;;3.25;100.00
692;BME280;70475;50.084;8.576;2023-11-22T02:33:13;101541.28;;;3.20;100.00
692;BME280;70475;50.084;8.576;2023-11-22T02:35:41;101537.44;;;3.24;100.00
692;BME280;70475;50.084;8.576;2023-11-22T02:38:08;101546.06;;;3.26;100.00
692;BME280;70475;50.084;8.576;2023-11-22T02:40:37;101544.94;;;3.17;100.00
692;BME280;70475;50.084;8.576;2023-11-22T02:43:05;101540.94;;;3.24;100.00
692;BME280;70475;50.084;8.576;2023-11-22T02:45:35;101528.09;;;3.20;100.00
692;BME280;70475;50.084;8.576;2023-11-22T02:48:03;101519.88;;;3.24;100.00
692;BME280;70475;50.084;8.576;2023-11-22T02:50:36;101516.50;;;3.22;100.00
692;BME280;70475;50.084;8.576;2023-11-22T02:53:05;101506.22;;;3.19;100.00
692;BME280;70475;50.084;8.576;2023-11-22T02:55:34;101513.38;;;3.17;100.00
692;BME280;70475;50.084;8.576;2023-11-22T02:58:03;101515.28;;;3.15;100.00
692;BME280;70475;50.084;8.576;2023-11-22T03:00:30;101517.19;;;3.13;100.00
692;BME280;70475;50.084;8.576;2023-11-22T03:03:00;101515.97;;;3.06;100.00
692;BME280;70475;50.084;8.576;2023-11-22T03:05:30;101513.81;;;3.11;100.00
692;BME280;70475;50.084;8.576;2023-11-22T03:07:58;101528.78;;;3.11;100.00
692;BME280;70475;50.084;8.576;2023-11-22T03:10:25;101543.69;;;2.99;100.00
692;BME280;70475;50.084;8.576;2023-11-22T03:12:53;101544.16;;;2.93;100.00
692;BME280;70475;50.084;8.576;2023-11-22T03:15:22;101555.38;;;2.95;100.00
692;BME280;70475;50.084;8.576;2023-11-22T03:17:49;101554.91;;;2.90;100.00
692;BME280;70475;50.084;8.576;2023-11-22T03:20:17;101555.59;;;2.92;100.00
692;BME280;70475;50.084;8.576;2023-11-22T03:22:45;101565.09;;;2.95;100.00
692;BME280;70475;50.084;8.576;2023-11-22T03:25:17;101573.44;;;2.89;100.00
692;BME280;70475;50.084;8.576;2023-11-22T03:27:44;101577.47;;;2.82;100.00
692;BME280;70475;50.084;8.576;2023-11-22T03:30:13;101574.19;;;2.78;100.00
692;BME280;70475;50.084;8.576;2023-11-22T03:32:43;101577.31;;;2.83;100.00
692;BME280;70475;50.084;8.576;2023-11-22T03:35:11;101580.09;;;2.82;100.00
692;BME280;70475;50.084;8.576;2023-11-22T03:37:38;101575.16;;;2.77;100.00
692;BME280;70475;50.084;8.576;2023-11-22T03:40:07;101582.41;;;2.74;100.00
692;BME280;70475;50.084;8.576;2023-11-22T03:42:36;101589.97;;;2.78;100.00
692;BME280;70475;50.084;8.576;2023-11-22T03:45:04;101586.00;;;2.73;100.00
692;BME280;70475;50.084;8.576;2023-11-22T03:47:32;101585.38;;;2.69;100.00
692;BME280;70475;50.084;8.576;2023-11-22T03:50:01;101600.41;;;2.67;100.00
692;BME280;70475;50.084;8.576;2023-11-22T03:52:29;101598.13;;;2.63;100.00
692;BME280;70475;50.084;8.576;2023-11-22T03:54:57;101601.16;;;2.69;100.00
692;BME280;70475;50.084;8.576;2023-11-22T03:57:24;101610.00;;;2.68;100.00
692;BME280;70475;50.084;8.576;2023-11-22T03:59:52;101622.63;;;2.63;100.00
692;BME280;70475;50.084;8.576;2023-11-22T04:02:19;101630.31;;;2.66;100.00
692;BME280;70475;50.084;8.576;2023-11-22T04:04:47;101634.50;;;2.69;100.00
692;BME280;70475;50.084;8.576;2023-11-22T04:07:16;101638.00;;;2.57;100.00
692;BME280;70475;50.084;8.576;2023-11-22T04:09:43;101638.94;;;2.56;100.00
692;BME280;70475;50.084;8.576;2023-11-22T04:12:11;101646.22;;;2.52;100.00
692;BME280;70475;50.084;8.576;2023-11-22T04:14:39;101644.09;;;2.57;100.00
692;BME280;70475;50.084;8.576;2023-11-22T04:17:06;101655.03;;;2.64;100.00
692;BME280;70475;50.084;8.576;2023-11-22T04:19:34;101672.06;;;2.58;100.00
692;BME280;70475;50.084;8.576;2023-11-22T04:22:03;101670.50;;;2.56;100.00
692;BME280;70475;50.084;8.576;2023-11-22T04:24:32;101675.88;;;2.42;100.00
692;BME280;70475;50.084;8.576;2023-11-22T04:26:59;101681.53;;;2.48;100.00
692;BME280;70475;50.084;8.576;2023-11-22T04:29:29;101675.22;;;2.63;100.00
692;BME280;70475;50.084;8.576;2023-11-22T04:31:56;101673.53;;;2.62;100.00
692;BME280;70475;50.084;8.576;2023-11-22T04:34:24;101684.06;;;2.62;100.00
692;BME280;70475;50.084;8.576;2023-11-22T04:36:51;101682.34;;;2.61;100.00
692;BME280;70475;50.084;8.576;2023-11-22T04:39:19;101684.06;;;2.62;100.00
692;BME280;70475;50.084;8.576;2023-11-22T04:41:48;101682.56;;;2.58;100.00
692;BME280;70475;50.084;8.576;2023-11-22T04:44:16;101681.53;;;2.48;100.00
692;BME280;70475;50.084;8.576;2023-11-22T04:46:43;101685.13;;;2.47;100.00
692;BME280;70475;50.084;8.576;2023-11-22T04:49:11;101690.38;;;2.47;100.00
692;BME280;70475;50.084;8.576;2023-11-22T04:51:39;101681.97;;;2.42;100.00
692;BME280;70475;50.084;8.576;2023-11-22T04:54:09;101686.19;;;2.32;100.00
692;BME280;70475;50.084;8.576;2023-11-22T04:56:37;101689.75;;;2.31;100.00
692;BME280;70475;50.084;8.576;2023-11-22T04:59:06;101677.03;;;2.25;100.00
692;BME280;70475;50.084;8.576;2023-11-22T05:01:34;101688.28;;;2.14;100.00
692;BME280;70475;50.084;8.576;2023-11-22T05:04:02;101683.13;;;2.13;100.00
692;BME280;70475;50.084;8.576;2023-11-22T05:06:29;101703.59;;;2.08;100.00
692;BME280;70475;50.084;8.576;2023-11-22T05:08:57;101691.44;;;2.07;100.00
692;BME280;70475;50.084;8.576;2023-11-22T05:11:25;101703.44;;;2.24;100.00
692;BME280;70475;50.084;8.576;2023-11-22T05:13:52;101700.28;;;2.31;100.00
692;BME280;70475;50.084;8.576;2023-11-22T05:16:21;101702.25;;;2.28;100.00
692;BME280;70475;50.084;8.576;2023-11-22T05:18:50;101709.94;;;2.18;100.00
692;BME280;70475;50.084;8.576;2023-11-22T05:21:17;101720.47;;;2.18;100.00
692;BME280;70475;50.084;8.576;2023-11-22T05:23:45;101719.81;;;2.14;100.00
692;BME280;70475;50.084;8.576;2023-11-22T05:26:13;101724.41;;;2.11;100.00
692;BME280;70475;50.084;8.576;2023-11-22T05:28:40;101716.34;;;2.14;100.00
692;BME280;70475;50.084;8.576;2023-11-22T05:31:08;101717.91;;;2.04;100.00
692;BME280;70475;50.084;8.576;2023-11-22T05:33:40;101727.16;;;1.97;100.00
692;BME280;70475;50.084;8.576;2023-11-22T05:36:08;101739.53;;;1.95;100.00
692;BME280;70475;50.084;8.576;2023-11-22T05:38:38;101736.28;;;2.04;100.00
692;BME280;70475;50.084;8.576;2023-11-22T05:41:05;101741.44;;;1.93;100.00
692;BME280;70475;50.084;8.576;2023-11-22T05:43:33;101741.44;;;1.93;100.00
692;BME280;70475;50.084;8.576;2023-11-22T05:46:03;101742.03;;;1.84;100.00
692;BME280;70475;50.084;8.576;2023-11-22T05:48:31;101734.47;;;1.79;100.00
692;BME280;70475;50.084;8.576;2023-11-22T05:51:00;101750.63;;;1.73;100.00
692;BME280;70475;50.084;8.576;2023-11-22T05:53:27;101748.38;;;1.67;100.00
692;BME280;70475;50.084;8.576;2023-11-22T05:55:55;101758.91;;;1.67;100.00
692;BME280;70475;50.084;8.576;2023-11-22T05:58:23;101762.56;;;1.65;100.00
692;BME280;70475;50.084;8.576;2023-11-22T06:00:50;101760.03;;;1.63;100.00
692;BME280;70475;50.084;8.576;2023-11-22T06:03:18;101762.78;;;1.62;100.00
692;BME280;70475;50.084;8.576;2023-11-22T06:05:46;101766.78;;;1.67;100.00
692;BME280;70475;50.084;8.576;2023-11-22T06:08:15;101775.69;;;1.65;100.00
692;BME280;70475;50.084;8.576;2023-11-22T06:10:43;101790.13;;;1.58;100.00
692;BME280;70475;50.084;8.576;2023-11-22T06:13:11;101797.66;;;1.50;100.00
692;BME280;70475;50.084;8.576;2023-11-22T06:15:39;101791.66;;;1.48;100.00
692;BME280;70475;50.084;8.576;2023-11-22T06:18:07;101793.47;;;1.47;100.00
692;BME280;70475;50.084;8.576;2023-11-22T06:20:35;101798.16;;;1.42;100.00
692;BME280;70475;50.084;8.576;2023-11-22T06:23:03;101809.84;;;1.51;100.00
692;BME280;70475;50.084;8.576;2023-11-22T06:25:32;101825.69;;;1.49;100.00
692;BME280;70475;50.084;8.576;2023-11-22T06:28:00;101826.16;;;1.42;100.00
692;BME280;70475;50.084;8.576;2023-11-22T06:30:28;101826.25;;;1.40;100.00
692;BME280;70475;50.084;8.576;2023-11-22T06:32:56;101838.75;;;1.37;100.00
692;BME280;70475;50.084;8.576;2023-11-22T06:35:24;101835.38;;;1.35;100.00
692;BME280;70475;50.084;8.576;2023-11-22T06:37:52;101839.56;;;1.37;100.00
692;BME280;70475;50.084;8.576;2023-11-22T06:40:19;101845.09;;;1.33;100.00
692;BME280;70475;50.084;8.576;2023-11-22T06:42:49;101842.13;;;1.25;100.00
692;BME280;70475;50.084;8.576;2023-11-22T06:45:16;101840.28;;;1.27;100.00
692;BME280;70475;50.084;8.576;2023-11-22T06:47:44;101840.06;;;1.30;100.00
692;BME280;70475;50.084;8.576;2023-11-22T06:50:12;101836.88;;;1.25;100.00
692;BME280;70475;50.084;8.576;2023-11-22T06:52:40;101833.69;;;1.20;100.00
692;BME280;70475;50.084;8.576;2023-11-22T06:55:09;101826.78;;;1.19;100.00
692;BME280;70475;50.084;8.576;2023-11-22T06:57:37;101833.50;;;1.23;100.00
692;BME280;70475;50.084;8.576;2023-11-22T07:00:07;101828.91;;;1.12;100.00
692;BME280;70475;50.084;8.576;2023-11-22T07:02:36;101845.31;;;1.16;100.00
692;BME280;70475;50.084;8.576;2023-11-22T07:05:04;101853.75;;;1.21;100.00
692;BME280;70475;50.084;8.576;2023-11-22T07:07:34;101858.44;;;1.16;100.00
692;BME280;70475;50.084;8.576;2023-11-22T07:10:02;101857.69;;;1.14;100.00
692;BME280;70475;50.084;8.576;2023-11-22T07:12:31;101866.31;;;1.16;100.00
692;BME280;70475;50.084;8.576;2023-11-22T07:15:00;101877.56;;;1.18;100.00
692;BME280;70475;50.084;8.576;2023-11-22T07:17:30;101877.94;;;1.12;100.00
692;BME280;70475;50.084;8.576;2023-11-22T07:20:00;101873.50;;;1.12;100.00
692;BME280;70475;50.084;8.576;2023-11-22T07:22:27;101875.13;;;1.15;100.00
692;BME280;70475;50.084;8.576;2023-11-22T07:24:56;101866.41;;;1.14;100.00
692;BME280;70475;50.084;8.576;2023-11-22T07:27:28;101875.84;;;1.17;100.00
692;BME280;70475;50.084;8.576;2023-11-22T07:29:57;101866.69;;;1.24;100.00
692;BME280;70475;50.084;8.576;2023-11-22T07:32:24;101880.16;;;1.32;100.00
692;BME280;70475;50.084;8.576;2023-11-22T07:34:53;101884.28;;;1.36;100.00
692;BME280;70475;50.084;8.576;2023-11-22T07:37:22;101888.41;;;1.40;100.00
692;BME280;70475;50.084;8.576;2023-11-22T07:39:50;101881.19;;;1.43;100.00
692;BME280;70475;50.084;8.576;2023-11-22T07:42:18;101877.91;;;1.40;100.00
692;BME280;70475;50.084;8.576;2023-11-22T07:44:46;101876.69;;;1.45;100.00
692;BME280;70475;50.084;8.576;2023-11-22T07:47:13;101879.59;;;1.41;100.00
692;BME280;70475;50.084;8.576;2023-11-22T07:49:42;101868.06;;;1.43;100.00
692;BME280;70475;50.084;8.576;2023-11-22T07:52:12;101872.19;;;1.47;100.00
692;BME280;70475;50.084;8.576;2023-11-22T07:54:40;101867.41;;;1.54;100.00
692;BME280;70475;50.084;8.576;2023-11-22T07:57:08;101873.41;;;1.56;100.00
692;BME280;70475;50.084;8.576;2023-11-22T07:59:35;101879.38;;;1.58;100.00
692;BME280;70475;50.084;8.576;2023-11-22T08:02:04;101872.16;;;1.61;100.00
692;BME280;70475;50.084;8.576;2023-11-22T08:04:34;101865.88;;;1.64;100.00
692;BME280;70475;50.084;8.576;2023-11-22T08:07:02;101872.34;;;1.58;100.00
692;BME280;70475;50.084;8.576;2023-11-22T08:09:31;101879.75;;;1.66;100.00
692;BME280;70475;50.084;8.576;2023-11-22T08:11:59;101877.31;;;1.63;100.00
692;BME280;70475;50.084;8.576;2023-11-22T08:14:31;101885.66;;;1.69;100.00
692;BME280;70475;50.084;8.576;2023-11-22T08:17:00;101885.84;;;1.66;100.00
692;BME280;70475;50.084;8.576;2023-11-22T08:19:28;101879.38;;;1.58;100.00
692;BME280;70475;50.084;8.576;2023-11-22T08:21:55;101895.31;;;1.55;100.00
692;BME280;70475;50.084;8.576;2023-11-22T08:24:23;101893.81;;;1.65;100.00
692;BME280;70475;50.084;8.576;2023-11-22T08:26:52;101891.50;;;1.60;100.00
692;BME280;70475;50.084;8.576;2023-11-22T08:29:20;101888.97;;;1.59;100.00
692;BME280;70475;50.084;8.576;2023-11-22T08:31:48;101887.72;;;1.64;100.00
692;BME280;70475;50.084;8.576;2023-11-22T08:34:17;101881.44;;;1.67;100.00
692;BME280;70475;50.084;8.576;2023-11-22T08:36:44;101892.19;;;1.76;100.00
692;BME280;70475;50.084;8.576;2023-11-22T08:39:12;101896.22;;;1.82;100.00
692;BME280;70475;50.084;8.576;2023-11-22T08:41:40;101894.78;;;1.90;100.00
692;BME280;70475;50.084;8.576;2023-11-22T08:44:08;101895.44;;;1.94;100.00
692;BME280;70475;50.084;8.576;2023-11-22T08:46:36;101900.03;;;1.90;100.00
692;BME280;70475;50.084;8.576;2023-11-22T08:49:04;101890.38;;;1.91;100.00
692;BME280;70475;50.084;8.576;2023-11-22T08:51:32;101897.97;;;1.95;100.00
692;BME280;70475;50.084;8.576;2023-11-22T08:54:00;101896.91;;;1.98;100.00
692;BME280;70475;50.084;8.576;2023-11-22T08:56:28;101902.88;;;2.14;100.00
692;BME280;70475;50.084;8.576;2023-11-22T08:58:55;101904.41;;;2.31;100.00
692;BME280;70475;50.084;8.576;2023-11-22T09:01:24;101917.63;;;2.29;100.00
692;BME280;70475;50.084;8.576;2023-11-22T09:03:53;101922.38;;;2.24;100.00
692;BME280;70475;50.084;8.576;2023-11-22T09:06:20;101925.31;;;2.32;100.00
692;BME280;70475;50.084;8.576;2023-11-22T09:08:48;101923.75;;;2.30;100.00
692;BME280;70475;50.084;8.576;2023-11-22T09:11:16;101925.78;;;2.39;100.00
692;BME280;70475;50.084;8.576;2023-11-22T09:13:46;101927.06;;;2.19;100.00
692;BME280;70475;50.084;8.576;2023-11-22T09:16:14;101925.00;;;2.24;100.00
692;BME280;70475;50.084;8.576;2023-11-22T09:18:44;101911.88;;;2.24;100.00
692;BME280;70475;50.084;8.576;2023-11-22T09:21:11;101924.25;;;2.22;100.00
692;BME280;70475;50.084;8.576;2023-11-22T09:23:43;101919.84;;;2.23;100.00
692;BME280;70475;50.084;8.576;2023-11-22T09:26:11;101922.00;;;2.16;100.00
692;BME280;70475;50.084;8.576;2023-11-22T09:28:39;101920.53;;;2.12;100.00
692;BME280;70475;50.084;8.576;2023-11-22T09:31:06;101916.91;;;2.27;100.00
692;BME280;70475;50.084;8.576;2023-11-22T09:33:34;101934.88;;;2.33;100.00
692;BME280;70475;50.084;8.576;2023-11-22T09:36:03;101933.66;;;2.39;100.00
692;BME280;70475;50.084;8.576;2023-11-22T09:38:36;101936.81;;;2.44;100.00
692;BME280;70475;50.084;8.576;2023-11-22T09:41:04;101944.59;;;2.45;100.00
692;BME280;70475;50.084;8.576;2023-11-22T09:43:34;101944.25;;;2.64;100.00
692;BME280;70475;50.084;8.576;2023-11-22T09:46:03;101948.47;;;2.66;100.00
692;BME280;70475;50.084;8.576;2023-11-22T09:48:31;101953.69;;;2.54;100.00
692;BME280;70475;50.084;8.576;2023-11-22T09:51:07;101953.53;;;2.69;100.00
692;BME280;70475;50.084;8.576;2023-11-22T09:53:40;101941.13;;;2.84;100.00
692;BME280;70475;50.084;8.576;2023-11-22T09:56:09;101939.22;;;2.73;100.00
692;BME280;70475;50.084;8.576;2023-11-22T09:58:40;101953.72;;;2.66;100.00
692;BME280;70475;50.084;8.576;2023-11-22T10:01:10;101958.22;;;2.64;100.00
692;BME280;70475;50.084;8.576;2023-11-22T10:03:39;101968.09;;;2.87;100.00
692;BME280;70475;50.084;8.576;2023-11-22T10:06:09;101960.41;;;2.97;100.00
692;BME280;70475;50.084;8.576;2023-11-22T10:08:37;101967.44;;;2.84;100.00
692;BME280;70475;50.084;8.576;2023-11-22T10:11:05;101956.66;;;3.01;100.00
692;BME280;70475;50.084;8.576;2023-11-22T10:13:33;101954.19;;;2.85;100.00
692;BME280;70475;50.084;8.576;2023-11-22T10:16:09;101956.41;;;2.91;100.00
692;BME280;70475;50.084;8.576;2023-11-22T10:18:39;101971.13;;;2.81;100.00
692;BME280;70475;50.084;8.576;2023-11-22T10:21:19;101975.22;;;2.73;100.00
692;BME280;70475;50.084;8.576;2023-11-22T10:23:48;101981.97;;;2.89;100.00
692;BME280;70475;50.084;8.576;2023-11-22T10:26:18;101984.28;;;2.81;100.00
692;BME280;70475;50.084;8.576;2023-11-22T10:28:46;101976.94;;;2.60;100.00
692;BME280;70475;50.084;8.576;2023-11-22T10:31:13;101969.00;;;2.74;100.00
692;BME280;70475;50.084;8.576;2023-11-22T10:33:42;101964.91;;;2.82;100.00
692;BME280;70475;50.084;8.576;2023-11-22T10:36:10;101975.13;;;2.87;100.00
692;BME280;70475;50.084;8.576;2023-11-22T10:38:40;101963.53;;;2.77;100.00
692;BME280;70475;50.084;8.576;2023-11-22T10:41:08;101961.75;;;2.77;100.00
692;BME280;70475;50.084;8.576;2023-11-22T10:43:37;101951.25;;;2.77;100.00
692;BME280;70475;50.084;8.576;2023-11-22T10:46:05;101954.28;;;2.71;100.00
692;BME280;70475;50.084;8.576;2023-11-22T10:48:35;101974.47;;;2.83;100.00
692;BME280;70475;50.084;8.576;2023-11-22T10:51:04;101981.34;;;2.86;100.00
692;BME280;70475;50.084;8.576;2023-11-22T10:53:34;101986.41;;;2.89;100.00
692;BME280;70475;50.084;8.576;2023-11-22T10:56:10;101996.72;;;2.92;100.00
692;BME280;70475;50.084;8.576;2023-11-22T10:58:45;101998.28;;;2.82;100.00
692;BME280;70475;50.084;8.576;2023-11-22T11:01:15;102006.16;;;2.82;100.00
692;BME280;70475;50.084;8.576;2023-11-22T11:03:47;102006.00;;;2.97;100.00
692;BME280;70475;50.084;8.576;2023-11-22T11:06:20;102014.38;;;2.90;100.00
692;BME280;70475;50.084;8.576;2023-11-22T11:08:55;102009.03;;;2.65;100.00
692;BME280;70475;50.084;8.576;2023-11-22T11:11:27;102002.94;;;2.64;100.00
692;BME280;70475;50.084;8.576;2023-11-22T11:13:57;102013.72;;;2.74;100.00
692;BME280;70475;50.084;8.576;2023-11-22T11:16:25;102036.59;;;2.59;100.00
692;BME280;70475;50.084;8.576;2023-11-22T11:18:53;102034.84;;;2.72;100.00
692;BME280;70475;50.084;8.576;2023-11-22T11:21:21;102033.97;;;2.59;100.00
692;BME280;70475;50.084;8.576;2023-11-22T11:23:51;102029.63;;;2.58;100.00
692;BME280;70475;50.084;8.576;2023-11-22T11:26:25;102034.09;;;2.70;100.00
692;BME280;70475;50.084;8.576;2023-11-22T11:28:54;102022.44;;;2.74;100.00
692;BME280;70475;50.084;8.576;2023-11-22T11:31:22;102015.34;;;2.89;100.00
692;BME280;70475;50.084;8.576;2023-11-22T11:33:54;102028.50;;;3.01;100.00
692;BME280;70475;50.084;8.576;2023-11-22T11:36:24;102040.53;;;3.05;100.00
692;BME280;70475;50.084;8.576;2023-11-22T11:38:53;102032.94;;;3.01;100.00
692;BME280;70475;50.084;8.576;2023-11-22T11:41:25;102036.59;;;2.98;100.00
692;BME280;70475;50.084;8.576;2023-11-22T11:43:56;102042.66;;;2.86;100.00
692;BME280;70475;50.084;8.576;2023-11-22T11:46:23;102037.16;;;3.03;100.00
692;BME280;70475;50.084;8.576;2023-11-22T11:48:52;102040.53;;;3.05;100.00
692;BME280;70475;50.084;8.576;2023-11-22T11:51:22;102039.44;;;2.95;100.00
692;BME280;70475;50.084;8.576;2023-11-22T11:53:50;102044.41;;;2.73;100.00
692;BME280;70475;50.084;8.576;2023-11-22T11:56:18;102038.25;;;2.60;100.00
692;BME280;70475;50.084;8.576;2023-11-22T11:58:47;102029.97;;;2.66;100.00
692;BME280;70475;50.084;8.576;2023-11-22T12:01:18;102013.72;;;2.74;100.00
692;BME280;70475;50.084;8.576;2023-11-22T12:03:46;102012.06;;;2.85;100.00
692;BME280;70475;50.084;8.576;2023-11-22T12:06:18;102011.84;;;2.88;100.00
692;BME280;70475;50.084;8.576;2023-11-22T12:08:47;102007.06;;;2.68;100.00
692;BME280;70475;50.084;8.576;2023-11-22T12:11:15;102003.97;;;2.62;100.00
692;BME280;70475;50.084;8.576;2023-11-22T12:13:44;101997.06;;;2.73;100.00
692;BME280;70475;50.084;8.576;2023-11-22T12:16:18;101989.94;;;2.88;100.00
692;BME280;70475;50.084;8.576;2023-11-22T12:18:47;101990.25;;;2.83;100.00
692;BME280;70475;50.084;8.576;2023-11-22T12:21:16;101987.97;;;2.91;100.00
692;BME280;70475;50.084;8.576;2023-11-22T12:23:45;101973.34;;;3.00;100.00
692;BME280;70475;50.084;8.576;2023-11-22T12:26:16;101970.81;;;2.98;100.00
692;BME280;70475;50.084;8.576;2023-11-22T12:28:45;101971.44;;;2.89;100.00
692;BME280;70475;50.084;8.576;2023-11-22T12:31:30;101982.00;;;3.02;100.00
692;BME280;70475;50.084;8.576;2023-11-22T12:34:01;101986.31;;;3.03;100.00
692;BME280;70475;50.084;8.576;2023-11-22T12:36:29;101973.16;;;3.03;100.00
692;BME280;70475;50.084;8.576;2023-11-22T12:38:57;101963.06;;;3.09;100.00
692;BME280;70475;50.084;8.576;2023-11-22T12:41:26;101984.97;;;3.22;100.00
692;BME280;70475;50.084;8.576;2023-11-22T12:44:03;101979.28;;;3.28;100.00
692;BME280;70475;50.084;8.576;2023-11-22T12:46:46;101977.31;;;3.32;100.00
692;BME280;70475;50.084;8.576;2023-11-22T12:49:16;101994.03;;;3.18;100.00
692;BME280;70475;50.084;8.576;2023-11-22T12:51:46;101993.38;;;3.02;100.00
692;BME280;70475;50.084;8.576;2023-11-22T12:54:14;101984.22;;;3.08;100.00
692;BME280;70475;50.084;8.576;2023-11-22T12:56:42;101992.31;;;3.17;100.00
692;BME280;70475;50.084;8.576;2023-11-22T12:59:10;101992.13;;;3.20;100.00
692;BME280;70475;50.084;8.576;2023-11-22T13:01:38;102000.13;;;3.06;100.00
692;BME280;70475;50.084;8.576;2023-11-22T13:04:08;101987.91;;;3.05;100.00
692;BME280;70475;50.084;8.576;2023-11-22T13:06:36;101982.03;;;3.27;100.00
692;BME280;70475;50.084;8.576;2023-11-22T13:09:04;101976.44;;;3.44;100.00
692;BME280;70475;50.084;8.576;2023-11-22T13:11:33;101961.81;;;3.52;100.00
692;BME280;70475;50.084;8.576;2023-11-22T13:14:01;101947.91;;;3.50;100.00
692;BME280;70475;50.084;8.576;2023-11-22T13:16:28;101958.66;;;3.22;100.00
692;BME280;70475;50.084;8.576;2023-11-22T13:18:56;101952.75;;;3.31;100.00